createdAt,value
2023-05-12T00:00:00.365Z,13.33
2023-05-12T00:02:01.842Z,13.30
2023-05-12T00:04:03.724Z,13.26
2023-05-12T00:06:05.567Z,13.23
2023-05-12T00:08:07.420Z,13.21
2023-05-12T00:10:09.278Z,13.18
2023-05-12T00:12:11.649Z,13.16
2023-05-12T00:14:13.132Z,13.15
2023-05-12T00:16:15.823Z,13.13
2023-05-12T00:18:17.894Z,13.12
2023-05-12T00:20:19.800Z,13.11
2023-05-12T00:22:21.511Z,13.09
2023-05-12T00:24:23.052Z,13.08
2023-05-12T00:26:24.710Z,13.05
2023-05-12T00:28:26.203Z,13.02
2023-05-12T00:30:27.657Z,12.98
2023-05-12T00:32:29.481Z,12.94
2023-05-12T00:34:31.119Z,12.91
2023-05-12T00:36:32.613Z,12.86
2023-05-12T00:38:34.608Z,12.84
2023-05-12T00:40:36.438Z,12.78
2023-05-12T00:42:38.251Z,12.74
2023-05-12T00:44:39.807Z,12.72
2023-05-12T00:46:41.555Z,12.67
2023-05-12T00:48:44.246Z,12.64
2023-05-12T00:50:45.987Z,12.61
2023-05-12T00:52:48.894Z,12.59
2023-05-12T00:54:50.641Z,12.57
2023-05-12T00:56:52.405Z,12.55
2023-05-12T00:58:53.854Z,12.55
2023-05-12T01:00:56.278Z,12.55
2023-05-12T01:02:58.641Z,12.54
2023-05-12T01:05:00.506Z,12.53
2023-05-12T01:07:08.493Z,12.53
2023-05-12T01:09:10.279Z,12.49
2023-05-12T01:11:12.017Z,12.49
2023-05-12T01:13:13.528Z,12.48
2023-05-12T01:15:15.264Z,12.47
2023-05-12T01:17:20.609Z,12.43
2023-05-12T01:19:34.400Z,12.40
2023-05-12T01:21:36.147Z,12.36
2023-05-12T01:23:42.485Z,12.35
2023-05-12T01:25:46.480Z,12.32
2023-05-12T01:27:49.382Z,12.31
2023-05-12T01:29:52.312Z,12.28
2023-05-12T01:31:54.907Z,12.26
2023-05-12T01:33:56.477Z,12.24
2023-05-12T01:35:57.945Z,12.18
2023-05-12T01:37:59.392Z,12.15
2023-05-12T01:40:00.983Z,12.12
2023-05-12T01:42:03.784Z,12.06
2023-05-12T01:44:05.428Z,12.01
2023-05-12T01:46:06.893Z,11.97
2023-05-12T01:48:08.414Z,11.95
2023-05-12T01:50:10.510Z,11.94
2023-05-12T01:52:11.972Z,11.93
2023-05-12T01:54:13.770Z,11.90
2023-05-12T01:56:15.385Z,11.88
2023-05-12T01:58:16.882Z,11.85
2023-05-12T02:00:18.742Z,11.81
2023-05-12T02:02:20.531Z,11.79
2023-05-12T02:04:22.040Z,11.77
2023-05-12T02:06:23.790Z,11.75
2023-05-12T02:08:25.946Z,11.74
2023-05-12T02:10:27.783Z,11.72
2023-05-12T02:12:29.299Z,11.73
2023-05-12T02:14:30.857Z,11.73
2023-05-12T02:16:32.350Z,11.74
2023-05-12T02:18:33.880Z,11.73
2023-05-12T02:20:36.209Z,11.73
2023-05-12T02:22:37.691Z,11.74
2023-05-12T02:24:39.156Z,11.74
2023-05-12T02:26:40.637Z,11.75
2023-05-12T02:28:42.122Z,11.77
2023-05-12T02:30:50.252Z,11.77
2023-05-12T02:32:51.733Z,11.76
2023-05-12T02:34:53.342Z,11.78
2023-05-12T02:36:54.837Z,11.78
2023-05-12T02:38:56.308Z,11.78
2023-05-12T02:40:58.048Z,11.78
2023-05-12T02:42:59.501Z,11.79
2023-05-12T02:45:01.077Z,11.78
2023-05-12T02:47:02.620Z,11.77
2023-05-12T02:49:04.456Z,11.77
2023-05-12T02:51:05.972Z,11.77
2023-05-12T02:53:07.495Z,11.78
2023-05-12T02:55:09.185Z,11.78
2023-05-12T02:57:11.680Z,11.79
2023-05-12T02:59:13.197Z,11.79
2023-05-12T03:01:14.804Z,11.78
2023-05-12T03:03:16.384Z,11.80
2023-05-12T03:05:18.036Z,11.81
2023-05-12T03:07:19.545Z,11.79
2023-05-12T03:09:21.030Z,11.76
2023-05-12T03:11:22.808Z,11.78
2023-05-12T03:13:24.314Z,11.77
2023-05-12T03:15:25.790Z,11.77
2023-05-12T03:17:27.334Z,11.78
2023-05-12T03:19:28.907Z,11.80
2023-05-12T03:21:30.427Z,11.83
2023-05-12T03:23:31.956Z,11.80
2023-05-12T03:25:35.060Z,11.81
2023-05-12T03:27:36.820Z,11.85
2023-05-12T03:29:38.282Z,11.82
2023-05-12T03:31:40.060Z,11.85
2023-05-12T03:33:41.614Z,11.85
2023-05-12T03:35:43.091Z,11.85
2023-05-12T03:37:44.666Z,11.83
2023-05-12T03:39:46.168Z,11.84
2023-05-12T03:41:47.625Z,11.87
2023-05-12T03:43:49.341Z,11.89
2023-05-12T03:45:50.820Z,11.88
2023-05-12T03:47:52.505Z,11.89
2023-05-12T03:49:53.956Z,11.92
2023-05-12T03:51:55.448Z,11.94
2023-05-12T03:53:56.910Z,11.93
2023-05-12T03:56:03.483Z,11.91
2023-05-12T03:58:04.973Z,11.91
2023-05-12T04:00:07.251Z,11.93
2023-05-12T04:02:11.770Z,11.94
2023-05-12T04:04:13.329Z,11.93
2023-05-12T04:06:14.871Z,11.94
2023-05-12T04:08:16.319Z,11.95
2023-05-12T04:10:18.133Z,11.97
2023-05-12T04:12:19.819Z,11.98
2023-05-12T04:14:29.040Z,11.98
2023-05-12T04:16:37.177Z,12.00
2023-05-12T04:18:38.973Z,12.01
2023-05-12T04:20:40.680Z,12.04
2023-05-12T04:22:42.300Z,12.05
2023-05-12T04:24:43.754Z,12.07
2023-05-12T04:26:45.338Z,12.10
2023-05-12T04:28:47.794Z,12.09
2023-05-12T04:30:49.376Z,12.12
2023-05-12T04:32:50.900Z,12.12
2023-05-12T04:34:55.248Z,12.13
2023-05-12T04:36:57.015Z,12.17
2023-05-12T04:38:58.459Z,12.20
2023-05-12T04:41:00.688Z,12.22
2023-05-12T04:43:02.182Z,12.24
2023-05-12T04:45:03.937Z,12.27
2023-05-12T04:47:05.651Z,12.30
2023-05-12T04:49:07.161Z,12.31
2023-05-12T04:51:08.811Z,12.32
2023-05-12T04:53:11.469Z,12.34
2023-05-12T04:55:13.048Z,12.37
2023-05-12T04:57:14.617Z,12.39
2023-05-12T04:59:16.434Z,12.42
2023-05-12T05:01:18.247Z,12.44
2023-05-12T05:03:19.999Z,12.48
2023-05-12T05:05:21.914Z,12.49
2023-05-12T05:07:23.624Z,12.51
2023-05-12T05:09:25.085Z,12.54
2023-05-12T05:11:26.926Z,12.55
2023-05-12T05:13:28.382Z,12.58
2023-05-12T05:15:29.848Z,12.60
2023-05-12T05:17:31.329Z,12.62
2023-05-12T05:19:46.127Z,12.66
2023-05-12T05:21:53.938Z,12.69
2023-05-12T05:23:55.387Z,12.73
2023-05-12T05:25:56.855Z,12.74
2023-05-12T05:27:58.452Z,12.75
2023-05-12T05:29:59.987Z,12.76
2023-05-12T05:32:01.547Z,12.79
2023-05-12T05:34:03.172Z,12.81
2023-05-12T05:36:06.359Z,12.85
2023-05-12T05:38:07.825Z,12.89
2023-05-12T05:40:09.854Z,12.93
2023-05-12T05:42:11.399Z,12.98
2023-05-12T05:44:12.855Z,13.02
2023-05-12T05:46:14.348Z,13.05
2023-05-12T05:48:15.896Z,13.09
2023-05-12T05:50:17.455Z,13.05
2023-05-12T05:52:19.014Z,13.08
2023-05-12T05:54:22.954Z,13.11
2023-05-12T05:56:24.406Z,13.12
2023-05-12T05:58:25.870Z,13.16
2023-05-12T06:00:27.355Z,13.18
2023-05-12T06:02:28.886Z,13.23
2023-05-12T06:04:30.583Z,13.28
2023-05-12T06:06:32.656Z,13.32
2023-05-12T06:08:34.152Z,13.35
2023-05-12T06:10:35.599Z,13.36
2023-05-12T06:12:37.131Z,13.39
2023-05-12T06:14:38.583Z,13.43
2023-05-12T06:16:40.087Z,13.46
2023-05-12T06:18:41.611Z,13.49
2023-05-12T06:20:43.323Z,13.54
2023-05-12T06:22:44.784Z,13.55
2023-05-12T06:24:46.258Z,13.60
2023-05-12T06:26:47.768Z,13.68
2023-05-12T06:28:49.208Z,13.74
2023-05-12T06:30:50.694Z,13.79
2023-05-12T06:32:52.235Z,13.83
2023-05-12T06:34:53.802Z,13.87
2023-05-12T06:36:55.317Z,13.95
2023-05-12T06:38:57.279Z,14.05
2023-05-12T06:40:58.750Z,14.11
2023-05-12T06:43:00.338Z,14.19
2023-05-12T06:45:01.843Z,14.29
2023-05-12T06:47:03.504Z,14.34
2023-05-12T06:49:05.351Z,14.44
2023-05-12T06:51:07.408Z,14.54
2023-05-12T06:53:09.228Z,14.64
2023-05-12T06:55:10.804Z,14.73
2023-05-12T06:57:12.266Z,14.83
2023-05-12T06:59:14.206Z,14.86
2023-05-12T07:01:16.405Z,14.88
2023-05-12T07:03:17.936Z,14.94
2023-05-12T07:05:19.934Z,14.94
2023-05-12T07:07:21.698Z,14.99
2023-05-12T07:09:23.153Z,15.04
2023-05-12T07:11:24.629Z,15.11
2023-05-12T07:13:26.240Z,15.22
2023-05-12T07:15:27.713Z,15.28
2023-05-12T07:17:29.244Z,15.33
2023-05-12T07:19:30.797Z,15.40
2023-05-12T07:21:32.413Z,15.43
2023-05-12T07:23:34.866Z,15.46
2023-05-12T07:25:36.458Z,15.54
2023-05-12T07:27:37.960Z,15.61
2023-05-12T07:29:39.437Z,15.71
2023-05-12T07:31:41.070Z,15.76
2023-05-12T07:33:42.720Z,15.84
2023-05-12T07:35:44.663Z,15.89
2023-05-12T07:37:46.136Z,15.94
2023-05-12T07:39:47.609Z,16.03
2023-05-12T07:41:50.453Z,16.13
2023-05-12T07:43:52.138Z,16.16
2023-05-12T07:45:54.666Z,16.22
2023-05-12T07:47:56.173Z,16.24
2023-05-12T07:49:58.068Z,16.26
2023-05-12T07:51:59.596Z,16.33
2023-05-12T07:54:01.552Z,16.40
2023-05-12T07:56:03.070Z,16.47
2023-05-12T07:58:04.618Z,16.53
2023-05-12T08:00:06.756Z,16.60
2023-05-12T08:02:08.536Z,16.60
2023-05-12T08:04:10.301Z,16.67
2023-05-12T08:06:11.796Z,16.71
2023-05-12T08:08:16.679Z,16.76
2023-05-12T08:10:19.491Z,16.80
2023-05-12T08:12:21.327Z,16.93
2023-05-12T08:14:22.922Z,17.07
2023-05-12T08:16:24.450Z,17.15
2023-05-12T08:18:25.985Z,17.26
2023-05-12T08:20:27.502Z,17.42
2023-05-12T08:22:29.092Z,17.57
2023-05-12T08:24:30.668Z,17.59
2023-05-12T08:26:34.849Z,17.61
2023-05-12T08:28:36.343Z,17.64
2023-05-12T08:30:37.882Z,17.69
2023-05-12T08:32:39.609Z,17.74
2023-05-12T08:34:41.153Z,17.70
2023-05-12T08:36:42.974Z,17.73
2023-05-12T08:38:44.460Z,17.71
2023-05-12T08:41:23.113Z,17.81
2023-05-12T08:43:26.671Z,17.83
2023-05-12T08:45:29.552Z,17.91
2023-05-12T08:47:33.656Z,17.91
2023-05-12T08:49:36.366Z,17.99
2023-05-12T08:51:40.470Z,18.05
2023-05-12T08:53:42.503Z,18.10
2023-05-12T08:55:54.380Z,18.16
2023-05-12T08:58:03.773Z,18.26
2023-05-12T09:00:08.856Z,18.36
2023-05-12T09:02:11.283Z,18.36
2023-05-12T09:04:15.384Z,18.38
2023-05-12T09:06:17.597Z,18.43
2023-05-12T09:08:19.272Z,18.49
2023-05-12T09:10:34.258Z,18.47
2023-05-12T09:12:37.922Z,18.53
2023-05-12T09:14:40.717Z,18.56
2023-05-12T09:16:45.908Z,18.61
2023-05-12T09:18:51.745Z,18.65
2023-05-12T09:20:53.276Z,18.75
2023-05-12T09:22:56.732Z,18.78
2023-05-12T09:24:58.227Z,18.87
2023-05-12T09:26:59.757Z,18.92
2023-05-12T09:29:08.345Z,18.97
2023-05-12T09:31:20.854Z,19.08
2023-05-12T09:33:22.961Z,19.17
2023-05-12T09:35:25.612Z,19.21
2023-05-12T09:37:32.380Z,19.34
2023-05-12T09:39:34.095Z,19.47
2023-05-12T09:41:43.186Z,19.58
2023-05-12T09:43:46.100Z,19.62
2023-05-12T09:45:50.141Z,19.72
2023-05-12T09:47:51.731Z,19.81
2023-05-12T09:49:53.394Z,19.84
2023-05-12T09:52:01.522Z,19.86
2023-05-12T09:54:03.564Z,19.90
2023-05-12T09:56:06.259Z,19.91
2023-05-12T09:58:09.937Z,19.84
2023-05-12T10:00:31.385Z,19.91
2023-05-12T10:02:40.614Z,20.04
2023-05-12T10:04:47.660Z,20.18
2023-05-12T10:06:49.607Z,20.30
2023-05-12T10:08:56.448Z,20.42
2023-05-12T10:11:00.231Z,20.44
2023-05-12T10:13:01.806Z,20.48
2023-05-12T10:15:04.293Z,20.50
2023-05-12T10:17:07.190Z,20.56
2023-05-12T10:19:10.449Z,20.70
2023-05-12T10:21:12.961Z,20.74
2023-05-12T10:23:16.793Z,20.76
2023-05-12T10:25:18.614Z,20.88
2023-05-12T10:27:22.442Z,21.10
2023-05-12T10:29:32.751Z,21.35
2023-05-12T10:31:36.216Z,21.53
2023-05-12T10:33:37.765Z,21.67
2023-05-12T10:35:40.095Z,21.80
2023-05-12T10:37:42.948Z,21.98
2023-05-12T10:39:49.075Z,22.12
2023-05-12T10:42:01.559Z,22.33
2023-05-12T10:44:03.080Z,22.58
2023-05-12T10:46:10.417Z,22.93
2023-05-12T10:48:15.674Z,23.22
2023-05-12T10:50:27.389Z,23.50
2023-05-12T10:52:28.860Z,23.80
2023-05-12T10:54:39.474Z,23.87
2023-05-12T10:56:45.094Z,24.28
2023-05-12T10:59:32.302Z,24.67
2023-05-12T11:01:34.763Z,25.01
2023-05-12T11:03:38.246Z,25.15
2023-05-12T11:05:40.354Z,25.03
2023-05-12T11:07:47.923Z,25.25
2023-05-12T11:09:58.514Z,25.14
2023-05-12T11:12:02.119Z,24.95
2023-05-12T11:14:04.397Z,25.04
2023-05-12T11:16:06.131Z,25.25
2023-05-12T11:18:08.412Z,24.88
2023-05-12T11:20:10.798Z,24.75
2023-05-12T11:22:12.984Z,24.67
2023-05-12T11:24:16.610Z,24.64
2023-05-12T11:26:18.760Z,25.02
2023-05-12T11:28:20.291Z,25.54
2023-05-12T11:30:22.303Z,26.16
2023-05-12T11:32:23.828Z,26.63
2023-05-12T11:34:27.152Z,26.91
2023-05-12T11:36:28.790Z,27.22
2023-05-12T11:38:30.346Z,27.62
2023-05-12T11:40:31.799Z,27.92
2023-05-12T11:42:33.475Z,28.05
2023-05-12T11:44:35.821Z,28.06
2023-05-12T11:46:37.317Z,28.31
2023-05-12T11:48:38.763Z,28.68
2023-05-12T11:50:48.659Z,28.55
2023-05-12T11:52:51.596Z,28.54
2023-05-12T11:54:58.026Z,28.49
2023-05-12T11:57:01.240Z,28.30
2023-05-12T11:59:02.868Z,27.82
2023-05-12T12:01:13.818Z,27.29
2023-05-12T12:03:16.736Z,26.66
2023-05-12T12:05:21.040Z,26.26
2023-05-12T12:07:30.229Z,26.02
2023-05-12T12:09:40.688Z,25.97
2023-05-12T12:11:42.168Z,26.25
2023-05-12T12:13:56.426Z,26.24
2023-05-12T12:15:58.008Z,26.15
2023-05-12T12:17:59.900Z,25.90
2023-05-12T12:20:01.617Z,25.57
2023-05-12T12:22:03.140Z,25.30
2023-05-12T12:24:06.146Z,25.14
2023-05-12T12:26:07.986Z,24.99
2023-05-12T12:28:09.496Z,24.85
2023-05-12T12:30:11.701Z,24.79
2023-05-12T12:32:13.271Z,24.80
2023-05-12T12:34:14.749Z,24.76
2023-05-12T12:36:16.211Z,24.78
2023-05-12T12:38:17.740Z,24.84
2023-05-12T12:40:20.151Z,24.98
2023-05-12T12:42:22.277Z,25.11
2023-05-12T12:44:23.754Z,25.11
2023-05-12T12:46:25.694Z,25.13
2023-05-12T12:48:28.533Z,25.13
2023-05-12T12:50:30.386Z,25.02
2023-05-12T12:52:32.752Z,24.88
2023-05-12T12:54:34.545Z,24.79
2023-05-12T12:56:36.079Z,24.67
2023-05-12T12:58:37.536Z,24.48
2023-05-12T13:00:39.102Z,24.41
2023-05-12T13:02:40.691Z,24.51
2023-05-12T13:04:42.295Z,24.63
2023-05-12T13:06:43.772Z,24.69
2023-05-12T13:08:45.307Z,24.64
2023-05-12T13:10:46.881Z,24.59
2023-05-12T13:12:48.401Z,24.50
2023-05-12T13:14:49.872Z,24.40
2023-05-12T13:16:52.843Z,24.37
2023-05-12T13:18:54.477Z,24.39
2023-05-12T13:20:56.000Z,24.45
2023-05-12T13:22:57.505Z,24.51
2023-05-12T13:24:59.000Z,24.48
2023-05-12T13:27:00.599Z,24.47
2023-05-12T13:29:02.127Z,24.56
2023-05-12T13:31:03.728Z,24.59
2023-05-12T13:33:06.240Z,24.54
2023-05-12T13:35:08.855Z,24.37
2023-05-12T13:37:10.390Z,24.21
2023-05-12T13:39:12.683Z,24.09
2023-05-12T13:41:14.215Z,24.04
2023-05-12T13:43:15.766Z,23.97
2023-05-12T13:45:18.368Z,24.00
2023-05-12T13:47:21.098Z,24.01
2023-05-12T13:49:22.550Z,24.05
2023-05-12T13:51:24.097Z,24.03
2023-05-12T13:53:25.837Z,23.97
2023-05-12T13:55:27.600Z,23.89
2023-05-12T13:57:29.180Z,23.87
2023-05-12T13:59:31.417Z,23.89
2023-05-12T14:01:32.963Z,23.87
2023-05-12T14:03:34.877Z,23.84
2023-05-12T14:05:36.421Z,23.79
2023-05-12T14:07:38.025Z,23.71
2023-05-12T14:09:39.502Z,23.66
2023-05-12T14:11:41.088Z,23.64
2023-05-12T14:13:42.841Z,23.61
2023-05-12T14:15:49.305Z,23.59
2023-05-12T14:17:51.513Z,23.56
2023-05-12T14:19:53.048Z,23.55
2023-05-12T14:21:54.588Z,23.52
2023-05-12T14:23:56.071Z,23.52
2023-05-12T14:25:57.948Z,23.52
2023-05-12T14:27:59.475Z,23.50
2023-05-12T14:30:00.983Z,23.52
2023-05-12T14:32:04.318Z,23.61
2023-05-12T14:34:05.907Z,23.72
2023-05-12T14:36:08.831Z,23.83
2023-05-12T14:38:10.655Z,23.84
2023-05-12T14:40:12.803Z,23.71
2023-05-12T14:42:14.269Z,23.61
2023-05-12T14:44:16.012Z,23.48
2023-05-12T14:46:17.584Z,23.32
2023-05-12T14:48:19.269Z,23.23
2023-05-12T14:50:20.849Z,23.14
2023-05-12T14:52:22.433Z,23.12
2023-05-12T14:54:25.892Z,23.20
2023-05-12T14:56:27.794Z,23.28
2023-05-12T14:58:29.322Z,23.32
2023-05-12T15:00:30.963Z,23.38
2023-05-12T15:02:34.130Z,23.45
2023-05-12T15:04:35.725Z,23.55
2023-05-12T15:06:38.093Z,23.56
2023-05-12T15:08:39.591Z,23.59
2023-05-12T15:10:41.053Z,23.59
2023-05-12T15:12:42.564Z,23.56
2023-05-12T15:14:44.106Z,23.48
2023-05-12T15:16:46.152Z,23.40
2023-05-12T15:18:47.755Z,23.31
2023-05-12T15:20:49.240Z,23.24
2023-05-12T15:22:50.832Z,23.19
2023-05-12T15:24:52.355Z,23.15
2023-05-12T15:26:53.865Z,23.08
2023-05-12T15:28:56.069Z,23.06
2023-05-12T15:30:57.806Z,23.02
2023-05-12T15:32:59.686Z,22.98
2023-05-12T15:35:01.357Z,22.94
2023-05-12T15:37:02.940Z,22.86
2023-05-12T15:39:05.153Z,22.79
2023-05-12T15:41:06.646Z,22.78
2023-05-12T15:43:08.476Z,22.77
2023-05-12T15:45:10.493Z,22.84
2023-05-12T15:47:12.242Z,22.95
2023-05-12T15:49:14.305Z,23.07
2023-05-12T15:51:15.829Z,23.14
2023-05-12T15:53:17.330Z,23.14
2023-05-12T15:55:19.254Z,23.17
2023-05-12T15:57:21.019Z,23.17
2023-05-12T15:59:22.751Z,23.13
2023-05-12T16:01:25.067Z,23.11
2023-05-12T16:03:27.244Z,23.04
2023-05-12T16:05:29.400Z,22.98
2023-05-12T16:07:31.203Z,22.87
2023-05-12T16:09:32.697Z,22.77
2023-05-12T16:11:34.431Z,22.69
2023-05-12T16:13:35.965Z,22.59
2023-05-12T16:15:37.575Z,22.50
2023-05-12T16:17:39.113Z,22.41
2023-05-12T16:19:40.630Z,22.36
2023-05-12T16:21:42.970Z,22.30
2023-05-12T16:23:44.444Z,22.26
2023-05-12T16:25:45.905Z,22.22
2023-05-12T16:27:47.384Z,22.23
2023-05-12T16:29:50.404Z,22.23
2023-05-12T16:31:52.102Z,22.25
2023-05-12T16:33:53.802Z,22.26
2023-05-12T16:35:55.388Z,22.27
2023-05-12T16:37:57.171Z,22.25
2023-05-12T16:39:58.900Z,22.28
2023-05-12T16:42:00.476Z,22.25
2023-05-12T16:44:02.204Z,22.29
2023-05-12T16:46:04.216Z,22.25
2023-05-12T16:48:06.338Z,22.24
2023-05-12T16:50:08.477Z,22.22
2023-05-12T16:52:11.937Z,22.22
2023-05-12T16:54:13.898Z,22.20
2023-05-12T16:56:15.372Z,22.16
2023-05-12T16:58:16.955Z,22.18
2023-05-12T17:00:18.852Z,22.20
2023-05-12T17:02:20.488Z,22.23
2023-05-12T17:04:22.090Z,22.25
2023-05-12T17:06:23.653Z,22.26
2023-05-12T17:08:25.221Z,22.23
2023-05-12T17:10:26.814Z,22.25
2023-05-12T17:12:28.356Z,22.23
2023-05-12T17:14:30.353Z,22.24
2023-05-12T17:16:31.972Z,22.26
2023-05-12T17:20:54.900Z,22.31
2023-05-12T17:22:57.017Z,22.29
2023-05-12T17:24:58.523Z,22.30
2023-05-12T17:27:00.414Z,22.29
2023-05-12T17:29:02.451Z,22.33
2023-05-12T17:31:04.395Z,22.28
2023-05-12T17:33:07.662Z,22.29
2023-05-12T17:35:10.017Z,22.31
2023-05-12T17:37:11.849Z,22.28
2023-05-12T17:39:15.890Z,22.27
2023-05-12T17:41:18.264Z,22.29
2023-05-12T17:43:21.355Z,22.25
2023-05-12T17:45:23.265Z,22.22
2023-05-12T17:47:26.014Z,22.22
2023-05-12T17:49:27.704Z,22.18
2023-05-12T17:51:29.957Z,22.19
2023-05-12T17:53:32.364Z,22.17
2023-05-12T17:55:33.827Z,22.14
2023-05-12T17:57:35.320Z,22.12
2023-05-12T17:59:36.895Z,22.10
2023-05-12T18:01:38.589Z,22.09
2023-05-12T18:03:40.353Z,22.09
2023-05-12T18:05:42.197Z,22.07
2023-05-12T18:07:43.673Z,22.06
2023-05-12T18:09:45.649Z,22.00
2023-05-12T18:11:50.058Z,21.95
2023-05-12T18:13:53.700Z,21.91
2023-05-12T18:15:55.184Z,21.85
2023-05-12T18:17:57.914Z,21.79
2023-05-12T18:19:59.507Z,21.76
2023-05-12T18:22:01.300Z,21.72
2023-05-12T18:24:02.892Z,21.68
2023-05-12T18:26:04.364Z,21.61
2023-05-12T18:28:07.435Z,21.53
2023-05-12T18:30:09.520Z,21.45
2023-05-12T18:32:10.988Z,21.35
2023-05-12T18:34:12.455Z,21.24
2023-05-12T18:36:16.079Z,21.12
2023-05-12T18:38:18.083Z,21.00
2023-05-12T18:40:19.755Z,20.93
2023-05-12T18:42:21.268Z,20.82
2023-05-12T18:44:23.013Z,20.75
2023-05-12T18:46:24.526Z,20.68
2023-05-12T18:48:26.028Z,20.60
2023-05-12T18:50:27.696Z,20.52
2023-05-12T18:52:29.167Z,20.49
2023-05-12T18:54:30.690Z,20.40
2023-05-12T18:56:32.217Z,20.32
2023-05-12T18:58:33.720Z,20.23
2023-05-12T19:00:35.634Z,20.16
2023-05-12T19:02:37.481Z,20.06
2023-05-12T19:04:39.271Z,20.03
2023-05-12T19:06:40.868Z,19.97
2023-05-12T19:08:42.328Z,19.89
2023-05-12T19:10:43.898Z,19.83
2023-05-12T19:12:45.412Z,19.74
2023-05-12T19:14:46.942Z,19.69
2023-05-12T19:16:48.593Z,19.65
2023-05-12T19:18:50.523Z,19.60
2023-05-12T19:20:52.152Z,19.54
2023-05-12T19:22:53.714Z,19.51
2023-05-12T19:24:55.809Z,19.41
2023-05-12T19:26:57.617Z,19.39
2023-05-12T19:29:00.484Z,19.33
2023-05-12T19:31:02.076Z,19.30
2023-05-12T19:33:03.690Z,19.24
2023-05-12T19:35:06.741Z,19.18
2023-05-12T19:37:08.277Z,19.14
2023-05-12T19:39:09.822Z,19.08
2023-05-12T19:41:11.581Z,19.02
2023-05-12T19:43:13.093Z,18.98
2023-05-12T19:45:15.602Z,18.94
2023-05-12T19:47:17.315Z,18.85
2023-05-12T19:49:18.804Z,18.78
2023-05-12T19:51:20.413Z,18.73
2023-05-12T19:53:21.907Z,18.71
2023-05-12T19:55:23.607Z,18.66
2023-05-12T19:57:25.341Z,18.58
2023-05-12T19:59:26.923Z,18.53
2023-05-12T20:01:28.694Z,18.47
2023-05-12T20:03:31.221Z,18.44
2023-05-12T20:05:36.611Z,18.43
2023-05-12T20:07:39.011Z,18.36
2023-05-12T20:09:40.577Z,18.35
2023-05-12T20:11:42.126Z,18.32
2023-05-12T20:13:43.671Z,18.26
2023-05-12T20:15:45.394Z,18.24
2023-05-12T20:17:46.956Z,18.19
2023-05-12T20:19:48.515Z,18.13
2023-05-12T20:21:49.976Z,18.10
2023-05-12T20:23:51.546Z,18.03
2023-05-12T20:25:53.339Z,18.01
2023-05-12T20:27:55.630Z,17.97
2023-05-12T20:29:57.164Z,17.97
2023-05-12T20:31:58.904Z,17.90
2023-05-12T20:34:00.364Z,17.82
2023-05-12T20:36:01.865Z,17.78
2023-05-12T20:38:03.312Z,17.76
2023-05-12T20:40:07.078Z,17.70
2023-05-12T20:42:11.134Z,17.67
2023-05-12T20:44:12.652Z,17.60
2023-05-12T20:46:14.256Z,17.56
2023-05-12T20:48:15.913Z,17.51
2023-05-12T20:50:17.571Z,17.49
2023-05-12T20:52:19.148Z,17.43
2023-05-12T20:54:20.663Z,17.39
2023-05-12T20:56:26.456Z,17.34
2023-05-12T20:58:27.992Z,17.30
2023-05-12T21:00:29.484Z,17.22
2023-05-12T21:02:31.083Z,17.19
2023-05-12T21:04:32.749Z,17.17
2023-05-12T21:06:35.913Z,17.15
2023-05-12T21:08:37.751Z,17.06
2023-05-12T21:10:40.123Z,17.03
2023-05-12T21:12:41.701Z,16.97
2023-05-12T21:14:45.178Z,16.91
2023-05-12T21:16:46.768Z,16.87
2023-05-12T21:18:48.391Z,16.81
2023-05-12T21:20:50.039Z,16.78
2023-05-12T21:22:51.529Z,16.75
2023-05-12T21:24:53.102Z,16.74
2023-05-12T21:26:54.611Z,16.71
2023-05-12T21:28:56.238Z,16.68
2023-05-12T21:30:57.715Z,16.62
2023-05-12T21:32:59.350Z,16.60
2023-05-12T21:35:00.849Z,16.58
2023-05-12T21:37:02.394Z,16.53
2023-05-12T21:39:03.996Z,16.52
2023-05-12T21:41:05.513Z,16.49
2023-05-12T21:43:07.073Z,16.45
2023-05-12T21:45:09.167Z,16.41
2023-05-12T21:47:10.728Z,16.34
2023-05-12T21:49:12.214Z,16.32
2023-05-12T21:51:14.138Z,16.28
2023-05-12T21:53:15.619Z,16.23
2023-05-12T21:55:17.133Z,16.20
2023-05-12T21:57:18.610Z,16.15
2023-05-12T21:59:20.702Z,16.15
2023-05-12T22:01:22.292Z,16.12
2023-05-12T22:03:25.335Z,16.08
2023-05-12T22:05:26.876Z,16.03
2023-05-12T22:07:29.416Z,16.01
2023-05-12T22:09:31.369Z,15.96
2023-05-12T22:11:33.412Z,15.93
2023-05-12T22:13:34.991Z,15.89
2023-05-12T22:15:36.590Z,15.84
2023-05-12T22:17:38.104Z,15.81
2023-05-12T22:19:39.623Z,15.77
2023-05-12T22:21:41.179Z,15.75
2023-05-12T22:23:42.780Z,15.71
2023-05-12T22:25:44.267Z,15.70
2023-05-12T22:27:45.798Z,15.68
2023-05-12T22:29:47.369Z,15.63
2023-05-12T22:31:49.034Z,15.56
2023-05-12T22:33:50.961Z,15.52
2023-05-12T22:35:52.476Z,15.47
2023-05-12T22:37:54.712Z,15.44
2023-05-12T22:39:56.180Z,15.40
2023-05-12T22:41:57.662Z,15.39
2023-05-12T22:43:59.242Z,15.34
2023-05-12T22:46:00.838Z,15.31
2023-05-12T22:48:02.499Z,15.28
2023-05-12T22:50:04.277Z,15.23
2023-05-12T22:52:06.120Z,15.20
2023-05-12T22:54:07.857Z,15.16
2023-05-12T22:56:09.383Z,15.13
2023-05-12T22:58:11.653Z,15.12
2023-05-12T23:00:13.767Z,15.08
2023-05-12T23:02:15.620Z,15.04
2023-05-12T23:04:17.231Z,14.99
2023-05-12T23:06:19.004Z,14.96
2023-05-12T23:08:20.722Z,14.93
2023-05-12T23:10:22.322Z,14.87
2023-05-12T23:12:23.982Z,14.84
2023-05-12T23:14:25.476Z,14.80
2023-05-12T23:16:27.199Z,14.76
2023-05-12T23:18:28.727Z,14.71
2023-05-12T23:20:30.340Z,14.65
2023-05-12T23:22:31.822Z,14.62
2023-05-12T23:24:34.116Z,14.63
2023-05-12T23:26:35.596Z,14.58
2023-05-12T23:28:37.127Z,14.54
2023-05-12T23:30:38.573Z,14.51
2023-05-12T23:32:40.262Z,14.49
2023-05-12T23:34:41.843Z,14.48
2023-05-12T23:36:43.321Z,14.44
2023-05-12T23:38:44.983Z,14.39
2023-05-12T23:40:46.501Z,14.38
2023-05-12T23:42:47.982Z,14.33
2023-05-12T23:44:49.461Z,14.29
2023-05-12T23:46:51.032Z,14.27
2023-05-12T23:48:52.581Z,14.25
2023-05-12T23:50:54.295Z,14.20
2023-05-12T23:52:56.473Z,14.20
2023-05-12T23:54:57.981Z,14.15
2023-05-12T23:56:59.461Z,14.15
2023-05-12T23:59:00.924Z,14.09
